Time;durP1;ratioP1;P1;durP2;ratioP2;P2;SDS_P1;SDS_P2;PMS_P1;PMS_P2;Temp;Humidity;BMP_temperature;BMP_pressure;BME280_temperature;BME280_humidity;BME280_pressure;Samples;Min_cycle;Max_cycle;Signal;HPM_P1;HPM_P2
2020/12/03 00:01:24;;;;;;;;;;;-0.60;99.90;;;;;;5074093;28;20295;-37
2020/12/03 00:03:54;;;;;;;;;;;-0.70;99.90;;;;;;5073616;28;19912;-36
2020/12/03 00:06:21;;;;;;;;;;;-0.70;99.90;;;;;;5074059;28;19999;-37
2020/12/03 00:09:10;;;;;;;;;;;-0.70;99.90;;;;;;5084430;28;20011;-37
2020/12/03 00:11:37;;;;;;;;;;;-0.80;99.90;;;;;;5093380;28;19908;-37
2020/12/03 00:14:02;;;;;;;;;;;-0.80;99.90;;;;;;5096722;28;19914;-37
2020/12/03 00:16:29;;;;;;;;;;;-0.80;99.90;;;;;;5096051;28;19998;-36
2020/12/03 00:18:55;;;;;;;;;;;-0.80;99.90;;;;;;5096102;28;19915;-37
2020/12/03 00:21:33;;;;;;;;;;;-0.70;99.90;;;;;;5096316;28;20320;-36
2020/12/03 00:23:59;;;;;;;;;;;-0.60;99.90;;;;;;5094561;28;19916;-37
2020/12/03 00:26:29;;;;;;;;;;;-0.50;99.90;;;;;;5095631;28;19938;-37
2020/12/03 00:28:54;;;;;;;;;;;-0.40;99.90;;;;;;5095876;28;19908;-37
2020/12/03 00:31:20;;;;;;;;;;;-0.30;99.90;;;;;;5096100;28;19914;-37
2020/12/03 00:33:46;;;;;;;;;;;-0.30;99.90;;;;;;5094455;28;19911;-37
2020/12/03 00:36:12;;;;;;;;;;;-0.20;99.90;;;;;;5095717;28;19908;-37
2020/12/03 00:38:37;;;;;;;;;;;-0.20;99.90;;;;;;5094119;28;20372;-37
2020/12/03 00:41:03;;;;;;;;;;;-0.20;99.90;;;;;;5094347;28;19908;-37
2020/12/03 00:43:28;;;;;;;;;;;-0.20;99.90;;;;;;5095105;28;19920;-37
2020/12/03 00:45:54;;;;;;;;;;;-0.20;99.90;;;;;;5095834;28;19993;-37
2020/12/03 00:48:20;;;;;;;;;;;-0.20;99.90;;;;;;5095814;28;19914;-37
2020/12/03 00:50:46;;;;;;;;;;;-0.10;99.90;;;;;;5095755;28;19908;-37
2020/12/03 00:53:12;;;;;;;;;;;-0.20;99.90;;;;;;5094209;28;19909;-37
2020/12/03 00:55:38;;;;;;;;;;;-0.20;99.90;;;;;;5095123;28;19935;-37
2020/12/03 00:58:05;;;;;;;;;;;-0.10;99.90;;;;;;5096208;28;19909;-37
2020/12/03 01:00:30;;;;;;;;;;;-0.10;99.90;;;;;;5128197;27;19912;-37
2020/12/03 01:02:56;;;;;;;;;;;0.00;99.90;;;;;;5095497;28;19915;-37
2020/12/03 01:05:21;;;;;;;;;;;0.10;99.90;;;;;;5095790;28;19932;-37
2020/12/03 01:07:47;;;;;;;;;;;0.10;99.90;;;;;;5095762;28;19908;-37
2020/12/03 01:10:17;;;;;;;;;;;0.20;99.90;;;;;;5094852;28;20362;-37
2020/12/03 01:12:42;;;;;;;;;;;0.20;99.90;;;;;;5095340;28;19908;-36
2020/12/03 01:15:08;;;;;;;;;;;0.20;99.90;;;;;;5095117;28;20006;-37
2020/12/03 01:17:34;;;;;;;;;;;0.20;99.90;;;;;;5094964;28;19908;-37
2020/12/03 01:20:00;;;;;;;;;;;0.20;99.90;;;;;;5095510;28;19908;-37
2020/12/03 01:22:25;;;;;;;;;;;0.10;99.90;;;;;;5093284;28;20309;-37
2020/12/03 01:24:51;;;;;;;;;;;0.10;99.90;;;;;;5095068;28;20258;-37
2020/12/03 01:27:16;;;;;;;;;;;0.10;99.90;;;;;;5093214;28;19915;-37
2020/12/03 01:29:44;;;;;;;;;;;0.00;99.90;;;;;;5093507;28;19995;-37
2020/12/03 01:32:09;;;;;;;;;;;0.00;99.90;;;;;;5094695;28;19915;-37
2020/12/03 01:34:35;;;;;;;;;;;0.00;99.90;;;;;;5094706;28;19908;-37
2020/12/03 01:37:01;;;;;;;;;;;0.00;99.90;;;;;;5094581;28;19908;-37
2020/12/03 01:39:27;;;;;;;;;;;0.00;99.90;;;;;;5094331;28;19915;-37
2020/12/03 01:41:52;;;;;;;;;;;0.10;99.90;;;;;;5094588;28;19920;-37
2020/12/03 01:44:41;;;;;;;;;;;0.20;99.90;;;;;;5093141;28;19924;-37
2020/12/03 01:47:27;;;;;;;;;;;0.20;99.90;;;;;;5090683;28;20205;-37
2020/12/03 01:49:53;;;;;;;;;;;0.20;99.90;;;;;;5094768;28;20003;-37
2020/12/03 01:52:19;;;;;;;;;;;0.10;99.90;;;;;;5095003;28;19940;-36
2020/12/03 01:54:44;;;;;;;;;;;0.10;99.90;;;;;;5094111;28;19909;-36
2020/12/03 01:57:13;;;;;;;;;;;0.10;99.90;;;;;;5094299;28;20273;-37
2020/12/03 01:59:48;;;;;;;;;;;0.10;99.90;;;;;;5094091;28;19912;-36
2020/12/03 02:02:15;;;;;;;;;;;0.20;99.90;;;;;;5094301;28;19909;-36
2020/12/03 02:04:40;;;;;;;;;;;0.20;99.90;;;;;;5094736;28;20015;-36
2020/12/03 02:07:11;;;;;;;;;;;0.10;99.90;;;;;;5094265;28;19955;-36
2020/12/03 02:09:37;;;;;;;;;;;0.10;99.90;;;;;;5094818;28;19908;-36
2020/12/03 02:12:03;;;;;;;;;;;0.20;99.90;;;;;;5094207;28;19908;-36
2020/12/03 02:14:29;;;;;;;;;;;0.20;99.90;;;;;;5093870;28;20370;-36
2020/12/03 02:16:55;;;;;;;;;;;0.20;99.90;;;;;;5092821;28;19908;-36
2020/12/03 02:19:25;;;;;;;;;;;0.20;99.90;;;;;;5094442;28;19953;-36
2020/12/03 02:21:58;;;;;;;;;;;0.20;99.90;;;;;;5094367;28;19908;-36
2020/12/03 02:24:25;;;;;;;;;;;0.10;99.90;;;;;;5094023;28;19919;-36
2020/12/03 02:26:51;;;;;;;;;;;0.10;99.90;;;;;;5094331;28;19912;-36
2020/12/03 02:29:17;;;;;;;;;;;0.10;99.90;;;;;;5098176;28;19993;-36
2020/12/03 02:31:43;;;;;;;;;;;0.10;99.90;;;;;;5096931;28;19915;-36
2020/12/03 02:34:09;;;;;;;;;;;0.10;99.90;;;;;;5096584;28;20369;-36
2020/12/03 02:36:34;;;;;;;;;;;0.10;99.90;;;;;;5098673;28;20296;-36
2020/12/03 02:39:00;;;;;;;;;;;0.10;99.90;;;;;;5098052;28;19930;-35
2020/12/03 02:41:25;;;;;;;;;;;0.20;99.90;;;;;;5098026;28;19998;-38
2020/12/03 02:43:51;;;;;;;;;;;0.20;99.90;;;;;;5098229;28;19923;-35
2020/12/03 02:46:16;;;;;;;;;;;0.20;99.90;;;;;;5096373;28;19912;-36
2020/12/03 02:48:42;;;;;;;;;;;0.20;99.90;;;;;;5098435;28;19912;-36
2020/12/03 02:51:08;;;;;;;;;;;0.20;99.90;;;;;;5097703;28;19938;-36
2020/12/03 02:53:33;;;;;;;;;;;0.20;99.90;;;;;;5097693;28;19908;-36
2020/12/03 02:55:59;;;;;;;;;;;0.20;99.90;;;;;;5098267;28;19915;-36
2020/12/03 02:58:24;;;;;;;;;;;0.30;99.90;;;;;;5097399;28;19908;-36
2020/12/03 03:00:50;;;;;;;;;;;0.30;99.90;;;;;;5097903;28;19953;-36
2020/12/03 03:03:15;;;;;;;;;;;0.30;99.90;;;;;;5095947;28;19919;-36
2020/12/03 03:05:41;;;;;;;;;;;0.30;99.90;;;;;;5098062;28;19982;-36
2020/12/03 03:08:07;;;;;;;;;;;0.30;99.90;;;;;;5096176;28;20375;-36
2020/12/03 03:10:32;;;;;;;;;;;0.30;99.90;;;;;;5097429;28;19914;-36
2020/12/03 03:12:58;;;;;;;;;;;0.30;99.90;;;;;;5097611;28;19912;-36
2020/12/03 03:15:23;;;;;;;;;;;0.30;99.90;;;;;;5097613;28;19908;-36
2020/12/03 03:17:49;;;;;;;;;;;0.30;99.90;;;;;;5096007;28;19930;-36
2020/12/03 03:20:15;;;;;;;;;;;0.30;99.90;;;;;;5097824;28;19908;-36
2020/12/03 03:22:41;;;;;;;;;;;0.40;99.90;;;;;;5097534;28;19951;-36
2020/12/03 03:25:07;;;;;;;;;;;0.40;99.90;;;;;;5096479;28;19965;-36
2020/12/03 03:27:33;;;;;;;;;;;0.40;99.90;;;;;;5097192;28;20300;-36
2020/12/03 03:29:58;;;;;;;;;;;0.30;99.90;;;;;;5097159;28;20029;-36
2020/12/03 03:32:24;;;;;;;;;;;0.30;99.90;;;;;;5096991;28;19920;-36
2020/12/03 03:34:49;;;;;;;;;;;0.40;99.90;;;;;;5096971;28;19908;-36
2020/12/03 03:37:15;;;;;;;;;;;0.40;99.90;;;;;;5097194;28;20018;-36
2020/12/03 03:39:40;;;;;;;;;;;0.50;99.90;;;;;;5096918;28;19908;-36
2020/12/03 03:42:06;;;;;;;;;;;0.50;99.90;;;;;;5096846;28;19920;-36
2020/12/03 03:44:32;;;;;;;;;;;0.50;99.90;;;;;;5096664;28;20361;-36
2020/12/03 03:46:57;;;;;;;;;;;0.60;99.90;;;;;;5097026;28;19912;-36
2020/12/03 03:49:23;;;;;;;;;;;0.60;99.90;;;;;;5096670;28;19915;-36
2020/12/03 03:51:49;;;;;;;;;;;0.60;99.90;;;;;;5095371;28;19912;-36
2020/12/03 03:54:14;;;;;;;;;;;0.60;99.90;;;;;;5096906;28;19953;-36
2020/12/03 03:56:40;;;;;;;;;;;0.60;99.90;;;;;;5096546;28;19953;-36
2020/12/03 03:59:05;;;;;;;;;;;0.60;99.90;;;;;;5096484;28;20378;-36
2020/12/03 04:01:31;;;;;;;;;;;0.50;99.90;;;;;;5095144;28;19908;-36
2020/12/03 04:03:57;;;;;;;;;;;0.40;99.90;;;;;;5096863;28;19912;-36
2020/12/03 04:06:22;;;;;;;;;;;0.40;99.90;;;;;;5094849;28;19966;-36
2020/12/03 04:08:48;;;;;;;;;;;0.40;99.90;;;;;;5096584;28;19919;-36
2020/12/03 04:11:16;;;;;;;;;;;0.40;99.90;;;;;;5096291;28;19934;-36
2020/12/03 04:13:42;;;;;;;;;;;0.30;99.90;;;;;;5096487;28;20319;-36
2020/12/03 04:16:07;;;;;;;;;;;0.30;99.90;;;;;;5094857;28;20006;-36
2020/12/03 04:18:33;;;;;;;;;;;0.30;99.90;;;;;;5096122;28;20353;-36
2020/12/03 04:21:00;;;;;;;;;;;0.30;99.90;;;;;;5094790;28;20369;-36
2020/12/03 04:23:26;;;;;;;;;;;0.40;99.90;;;;;;5096216;28;19912;-36
2020/12/03 04:25:52;;;;;;;;;;;0.30;99.90;;;;;;5095997;28;19912;-36
2020/12/03 04:28:18;;;;;;;;;;;0.20;99.90;;;;;;5095956;28;20319;-36
2020/12/03 04:30:44;;;;;;;;;;;0.10;99.90;;;;;;5094380;28;19973;-36
2020/12/03 04:33:09;;;;;;;;;;;0.00;99.90;;;;;;5095812;28;20361;-36
2020/12/03 04:35:37;;;;;;;;;;;-0.10;99.90;;;;;;5095063;28;19915;-45
2020/12/03 04:38:06;;;;;;;;;;;-0.20;99.90;;;;;;5095659;28;20037;-45
2020/12/03 04:40:33;;;;;;;;;;;-0.20;99.90;;;;;;5095696;28;19914;-45
2020/12/03 04:43:01;;;;;;;;;;;-0.30;99.90;;;;;;5094094;28;19931;-45
2020/12/03 04:45:59;;;;;;;;;;;-0.30;99.90;;;;;;5095903;28;19970;-45
2020/12/03 04:48:25;;;;;;;;;;;-0.30;99.90;;;;;;5073364;28;19932;-45
2020/12/03 04:51:04;;;;;;;;;;;-0.20;99.90;;;;;;5055721;28;20366;-45
2020/12/03 04:53:29;;;;;;;;;;;-0.10;99.90;;;;;;5073140;28;19909;-43
2020/12/03 04:55:55;;;;;;;;;;;0.00;99.90;;;;;;5073109;28;19909;-43
2020/12/03 04:58:31;;;;;;;;;;;0.00;99.90;;;;;;5072879;28;19909;-45
2020/12/03 05:01:02;;;;;;;;;;;-0.10;99.90;;;;;;5073594;28;20012;-46
2020/12/03 05:03:46;;;;;;;;;;;0.00;99.90;;;;;;5072751;28;20409;-43
2020/12/03 05:06:44;;;;;;;;;;;0.00;99.90;;;;;;5072857;28;19913;-44
2020/12/03 05:09:16;;;;;;;;;;;0.00;99.90;;;;;;4993677;28;19910;-46
2020/12/03 05:12:01;;;;;;;;;;;0.10;99.90;;;;;;4993492;28;19917;-44
2020/12/03 05:14:38;;;;;;;;;;;0.10;99.90;;;;;;4993752;28;19909;-43
2020/12/03 05:17:07;;;;;;;;;;;0.10;99.90;;;;;;4993739;28;19910;-44
2020/12/03 05:19:40;;;;;;;;;;;0.10;99.90;;;;;;4993230;28;19910;-44
2020/12/03 05:22:11;;;;;;;;;;;0.10;99.90;;;;;;4976954;28;19922;-43
2020/12/03 05:24:37;;;;;;;;;;;0.00;99.90;;;;;;5023448;28;19920;-43
2020/12/03 05:27:02;;;;;;;;;;;0.00;99.90;;;;;;5032680;28;19913;-44
2020/12/03 05:29:28;;;;;;;;;;;0.00;99.90;;;;;;5032850;28;20445;-44
2020/12/03 05:31:53;;;;;;;;;;;0.00;99.90;;;;;;5032975;28;19948;-43
2020/12/03 05:34:20;;;;;;;;;;;0.00;99.90;;;;;;5032381;28;19916;-44
2020/12/03 05:36:54;;;;;;;;;;;0.00;99.90;;;;;;5032690;28;19956;-44
2020/12/03 05:39:33;;;;;;;;;;;0.00;99.90;;;;;;5032165;28;19916;-44
2020/12/03 05:42:00;;;;;;;;;;;-0.10;99.90;;;;;;5032027;28;20012;-44
2020/12/03 05:44:32;;;;;;;;;;;-0.30;99.90;;;;;;5055995;28;19919;-43
2020/12/03 05:46:58;;;;;;;;;;;-0.40;99.90;;;;;;5094391;28;19912;-43
2020/12/03 05:49:24;;;;;;;;;;;-0.50;99.90;;;;;;5094919;28;19961;-43
2020/12/03 05:52:03;;;;;;;;;;;-0.50;99.90;;;;;;5094931;28;19909;-45
2020/12/03 05:54:29;;;;;;;;;;;-0.50;99.90;;;;;;5094130;28;19916;-43
2020/12/03 05:56:54;;;;;;;;;;;-0.50;99.90;;;;;;5093255;28;19931;-44
2020/12/03 05:59:21;;;;;;;;;;;-0.50;99.90;;;;;;5092677;28;19912;-44
2020/12/03 06:01:55;;;;;;;;;;;-0.50;99.90;;;;;;5093754;28;19955;-43
2020/12/03 06:04:25;;;;;;;;;;;-0.40;99.90;;;;;;5094746;28;19912;-44
2020/12/03 06:07:09;;;;;;;;;;;-0.30;99.90;;;;;;5094376;28;19912;-44
2020/12/03 06:09:35;;;;;;;;;;;-0.30;99.90;;;;;;5094567;28;20345;-44
2020/12/03 06:12:03;;;;;;;;;;;-0.30;99.90;;;;;;5094024;28;19991;-44
2020/12/03 06:14:35;;;;;;;;;;;-0.20;99.90;;;;;;5092596;28;19963;-44
2020/12/03 06:17:17;;;;;;;;;;;-0.10;99.90;;;;;;5093974;28;19969;-44
2020/12/03 06:20:00;;;;;;;;;;;0.10;99.90;;;;;;5127002;28;19915;-44
2020/12/03 06:22:37;;;;;;;;;;;0.10;99.90;;;;;;5093637;28;19916;-44
2020/12/03 06:25:23;;;;;;;;;;;0.10;99.90;;;;;;5093747;28;20304;-43
2020/12/03 06:28:02;;;;;;;;;;;0.20;99.90;;;;;;5093724;28;19955;-45
2020/12/03 06:30:27;;;;;;;;;;;0.10;99.90;;;;;;5093893;28;20231;-44
2020/12/03 06:32:53;;;;;;;;;;;0.20;99.90;;;;;;5093885;28;19961;-45
2020/12/03 06:35:24;;;;;;;;;;;0.20;99.90;;;;;;5093596;28;19922;-44
2020/12/03 06:38:16;;;;;;;;;;;0.30;99.90;;;;;;5093796;28;19912;-45
2020/12/03 06:40:45;;;;;;;;;;;0.30;99.90;;;;;;5092588;28;19951;-45
2020/12/03 06:43:37;;;;;;;;;;;0.40;99.90;;;;;;5092104;28;19924;-44
2020/12/03 06:46:21;;;;;;;;;;;0.40;99.90;;;;;;5092478;28;19908;-44
2020/12/03 06:48:59;;;;;;;;;;;0.30;99.90;;;;;;5094507;28;19909;-45
2020/12/03 06:51:31;;;;;;;;;;;0.40;99.90;;;;;;5092043;28;19908;-45
2020/12/03 06:53:57;;;;;;;;;;;0.30;99.90;;;;;;5094037;28;20358;-44
2020/12/03 06:56:32;;;;;;;;;;;0.30;99.90;;;;;;5093389;28;19908;-45
2020/12/03 06:58:57;;;;;;;;;;;0.30;99.90;;;;;;5093393;28;19915;-45
2020/12/03 07:01:42;;;;;;;;;;;0.30;99.90;;;;;;5093589;28;19908;-43
2020/12/03 07:04:26;;;;;;;;;;;0.30;99.90;;;;;;5093341;28;19935;-44
2020/12/03 07:07:12;;;;;;;;;;;0.30;99.90;;;;;;5093409;28;19952;-44
2020/12/03 07:09:58;;;;;;;;;;;0.30;99.90;;;;;;5093148;28;19999;-44
2020/12/03 07:12:27;;;;;;;;;;;0.40;99.90;;;;;;5093723;28;20308;-44
2020/12/03 07:15:02;;;;;;;;;;;0.50;99.90;;;;;;5096350;28;20320;-44
2020/12/03 07:17:36;;;;;;;;;;;0.70;99.90;;;;;;5095774;28;20022;-44
2020/12/03 07:20:02;;;;;;;;;;;0.60;99.90;;;;;;5095908;28;19934;-44
2020/12/03 07:22:49;;;;;;;;;;;0.60;99.90;;;;;;5097120;28;19912;-44
2020/12/03 07:25:15;;;;;;;;;;;0.80;99.90;;;;;;5112505;28;19995;-44
2020/12/03 07:27:52;;;;;;;;;;;0.80;99.90;;;;;;5096594;28;19916;-44
2020/12/03 07:30:18;;;;;;;;;;;0.90;99.90;;;;;;5097164;28;19951;-45
2020/12/03 07:33:02;;;;;;;;;;;1.00;99.90;;;;;;5097180;28;19970;-45
2020/12/03 07:35:41;;;;;;;;;;;1.10;99.90;;;;;;5096806;28;19915;-44
2020/12/03 07:38:25;;;;;;;;;;;1.20;99.90;;;;;;5095147;28;19965;-44
2020/12/03 07:40:52;;;;;;;;;;;1.30;99.90;;;;;;5095284;28;19912;-44
2020/12/03 07:43:20;;;;;;;;;;;1.30;99.90;;;;;;5096155;28;19924;-44
2020/12/03 07:45:49;;;;;;;;;;;1.30;99.90;;;;;;5096883;28;19915;-44
2020/12/03 07:48:14;;;;;;;;;;;1.30;99.90;;;;;;5096731;28;20287;-44
2020/12/03 07:50:45;;;;;;;;;;;1.30;99.90;;;;;;5096044;28;19908;-44
2020/12/03 07:53:24;;;;;;;;;;;1.30;99.90;;;;;;5096833;28;19915;-44
2020/12/03 07:55:53;;;;;;;;;;;1.30;99.90;;;;;;5096040;28;19908;-45
2020/12/03 07:58:34;;;;;;;;;;;1.30;99.90;;;;;;5096084;28;20435;-44
2020/12/03 08:01:00;;;;;;;;;;;1.40;99.90;;;;;;5096410;28;20404;-44
2020/12/03 08:03:46;;;;;;;;;;;1.40;99.90;;;;;;5095557;28;19916;-44
2020/12/03 08:06:13;;;;;;;;;;;1.40;99.90;;;;;;5096147;28;19911;-43
2020/12/03 08:08:39;;;;;;;;;;;1.50;99.90;;;;;;5095445;28;19912;-44
2020/12/03 08:11:06;;;;;;;;;;;1.50;99.90;;;;;;5095881;28;19908;-44
2020/12/03 08:13:34;;;;;;;;;;;1.60;99.90;;;;;;5095923;28;19914;-44
2020/12/03 08:16:03;;;;;;;;;;;1.60;99.90;;;;;;5095765;28;19908;-44
2020/12/03 08:18:35;;;;;;;;;;;1.60;99.90;;;;;;5095786;28;19912;-44
2020/12/03 08:21:00;;;;;;;;;;;1.60;99.90;;;;;;5095707;28;19915;-44
2020/12/03 08:23:26;;;;;;;;;;;1.70;99.90;;;;;;5093913;28;19917;-44
2020/12/03 08:25:52;;;;;;;;;;;1.70;99.90;;;;;;5093786;28;19944;-44
2020/12/03 08:28:20;;;;;;;;;;;1.80;99.90;;;;;;5096122;28;20362;-44
2020/12/03 08:30:52;;;;;;;;;;;1.80;99.90;;;;;;5095881;28;20277;-44
2020/12/03 08:33:24;;;;;;;;;;;1.80;99.90;;;;;;5095456;28;19908;-44
2020/12/03 08:35:56;;;;;;;;;;;1.90;99.90;;;;;;5095452;28;19916;-44
2020/12/03 08:38:26;;;;;;;;;;;2.00;99.90;;;;;;5095165;28;19908;-44
2020/12/03 08:40:55;;;;;;;;;;;2.10;99.90;;;;;;5095360;28;19908;-44
2020/12/03 08:43:21;;;;;;;;;;;2.20;99.90;;;;;;5095256;28;19928;-44
2020/12/03 08:45:55;;;;;;;;;;;2.40;99.90;;;;;;5095176;28;19908;-44
2020/12/03 08:48:23;;;;;;;;;;;2.60;99.90;;;;;;5095333;28;19923;-44
2020/12/03 08:50:56;;;;;;;;;;;2.70;99.90;;;;;;5094745;28;19955;-44
2020/12/03 08:53:22;;;;;;;;;;;2.80;99.90;;;;;;5095673;28;19953;-44
2020/12/03 08:55:47;;;;;;;;;;;2.90;99.90;;;;;;5095009;28;19908;-44
2020/12/03 08:58:17;;;;;;;;;;;2.90;99.90;;;;;;5093653;28;20056;-44
2020/12/03 09:00:43;;;;;;;;;;;3.00;99.90;;;;;;5095029;28;19966;-44
2020/12/03 09:03:13;;;;;;;;;;;3.30;99.90;;;;;;5092761;28;20324;-44
2020/12/03 09:05:41;;;;;;;;;;;3.40;99.90;;;;;;5094777;28;19912;-43
2020/12/03 09:08:08;;;;;;;;;;;3.60;99.90;;;;;;5094863;28;19908;-44
2020/12/03 09:10:34;;;;;;;;;;;3.60;99.90;;;;;;5092972;28;19908;-44
2020/12/03 09:12:59;;;;;;;;;;;3.60;99.90;;;;;;5094975;28;19908;-44
2020/12/03 09:15:26;;;;;;;;;;;3.70;99.90;;;;;;5094396;28;19908;-44
2020/12/03 09:17:55;;;;;;;;;;;3.90;99.90;;;;;;5094607;28;19909;-43
2020/12/03 09:20:21;;;;;;;;;;;3.90;99.90;;;;;;5095104;28;19942;-41
2020/12/03 09:22:46;;;;;;;;;;;3.80;99.90;;;;;;5094849;28;19912;-42
2020/12/03 09:25:13;;;;;;;;;;;3.60;99.90;;;;;;5093070;28;19916;-42
2020/12/03 09:27:49;;;;;;;;;;;3.50;99.90;;;;;;5094132;28;19912;-42
2020/12/03 09:30:20;;;;;;;;;;;3.40;99.90;;;;;;5094635;28;20354;-40
2020/12/03 09:32:47;;;;;;;;;;;3.40;99.90;;;;;;5093050;28;20306;-41
2020/12/03 09:35:13;;;;;;;;;;;3.60;99.90;;;;;;5094048;28;20443;-42
2020/12/03 09:37:38;;;;;;;;;;;3.80;99.90;;;;;;5094368;28;19957;-43
2020/12/03 09:40:06;;;;;;;;;;;4.10;99.90;;;;;;5092684;28;19949;-42
2020/12/03 09:42:37;;;;;;;;;;;4.10;99.90;;;;;;5093507;28;20370;-43
2020/12/03 09:45:08;;;;;;;;;;;4.40;99.90;;;;;;5094133;28;19997;-43
2020/12/03 09:47:34;;;;;;;;;;;4.20;99.90;;;;;;5094312;28;20334;-43
2020/12/03 09:50:00;;;;;;;;;;;4.30;99.90;;;;;;5093092;28;19908;-43
2020/12/03 09:52:26;;;;;;;;;;;4.30;99.90;;;;;;5094594;28;20396;-43
2020/12/03 09:54:52;;;;;;;;;;;4.40;99.90;;;;;;5094197;28;19914;-43
2020/12/03 09:57:18;;;;;;;;;;;4.50;99.90;;;;;;5094104;28;19913;-43
2020/12/03 09:59:43;;;;;;;;;;;4.50;99.90;;;;;;5094160;28;19931;-43
2020/12/03 10:02:09;;;;;;;;;;;4.80;99.90;;;;;;5094552;28;19908;-43
2020/12/03 10:04:53;;;;;;;;;;;5.10;99.90;;;;;;5094273;28;19916;-42
2020/12/03 10:07:24;;;;;;;;;;;5.00;99.90;;;;;;5093689;28;20393;-42
2020/12/03 10:10:10;;;;;;;;;;;4.90;99.90;;;;;;5094274;28;20269;-44
2020/12/03 10:12:54;;;;;;;;;;;5.20;99.90;;;;;;5094161;28;19914;-43
2020/12/03 10:15:19;;;;;;;;;;;5.30;99.90;;;;;;5093832;28;19915;-42
2020/12/03 10:17:51;;;;;;;;;;;5.30;99.90;;;;;;5094588;28;19908;-43
2020/12/03 10:20:18;;;;;;;;;;;5.00;99.90;;;;;;5092648;28;19931;-43
2020/12/03 10:22:50;;;;;;;;;;;5.40;99.90;;;;;;5093561;28;20349;-43
2020/12/03 10:25:19;;;;;;;;;;;5.80;99.90;;;;;;5093955;28;20224;-42
2020/12/03 10:27:57;;;;;;;;;;;5.90;99.90;;;;;;5093737;28;20265;-43
2020/12/03 10:30:36;;;;;;;;;;;6.50;99.90;;;;;;5093487;28;19912;-43
2020/12/03 10:33:11;;;;;;;;;;;6.30;99.90;;;;;;5093852;28;19909;-43
2020/12/03 10:35:43;;;;;;;;;;;6.50;99.90;;;;;;5093221;28;19928;-43
2020/12/03 10:38:11;;;;;;;;;;;6.70;99.90;;;;;;5093509;28;19912;-45
2020/12/03 10:40:36;;;;;;;;;;;5.80;99.90;;;;;;5094176;28;20308;-44
2020/12/03 10:43:07;;;;;;;;;;;6.00;99.90;;;;;;5091838;28;19927;-45
2020/12/03 10:45:35;;;;;;;;;;;6.20;99.90;;;;;;5093595;28;19912;-44
2020/12/03 10:48:06;;;;;;;;;;;6.60;99.90;;;;;;5093960;28;20342;-44
2020/12/03 10:50:47;;;;;;;;;;;6.60;99.90;;;;;;5097407;28;19915;-45
2020/12/03 10:53:12;;;;;;;;;;;7.40;99.90;;;;;;5096191;28;19912;-44
2020/12/03 10:55:39;;;;;;;;;;;8.20;99.60;;;;;;5097265;28;19965;-44
2020/12/03 10:58:07;;;;;;;;;;;8.30;97.50;;;;;;5097262;28;19915;-44
2020/12/03 11:00:33;;;;;;;;;;;8.80;94.80;;;;;;5097813;28;19908;-45
2020/12/03 11:03:02;;;;;;;;;;;8.20;97.00;;;;;;5096898;28;20018;-44
2020/12/03 11:05:28;;;;;;;;;;;7.80;97.10;;;;;;5097282;28;19916;-44
2020/12/03 11:07:57;;;;;;;;;;;8.10;98.90;;;;;;5096926;28;19914;-45
2020/12/03 11:10:23;;;;;;;;;;;8.20;96.40;;;;;;5096389;28;19908;-45
2020/12/03 11:12:51;;;;;;;;;;;8.70;95.60;;;;;;5097252;28;19912;-45
2020/12/03 11:15:19;;;;;;;;;;;8.10;96.60;;;;;;5096940;28;19908;-44
2020/12/03 11:17:47;;;;;;;;;;;8.10;97.30;;;;;;5097082;28;19908;-45
2020/12/03 11:20:13;;;;;;;;;;;8.00;97.90;;;;;;5097053;28;19908;-45
2020/12/03 11:22:43;;;;;;;;;;;7.30;99.40;;;;;;5096798;28;19965;-45
2020/12/03 11:25:12;;;;;;;;;;;8.00;98.60;;;;;;5096935;28;19916;-45
2020/12/03 11:27:40;;;;;;;;;;;8.20;95.10;;;;;;5096857;28;19943;-45
2020/12/03 11:30:16;;;;;;;;;;;7.50;99.70;;;;;;5096720;28;19908;-45
2020/12/03 11:32:52;;;;;;;;;;;7.40;99.90;;;;;;5095011;28;19908;-45
2020/12/03 11:35:22;;;;;;;;;;;7.60;97.80;;;;;;5096441;28;19995;-45
2020/12/03 11:37:50;;;;;;;;;;;7.80;98.10;;;;;;5096329;28;19954;-45
2020/12/03 11:40:21;;;;;;;;;;;6.80;97.90;;;;;;5096628;28;19916;-44
2020/12/03 11:50:38;;;;;;;;;;;7.70;98.10;;;;;;5053700;28;19919;-44
2020/12/03 11:53:07;;;;;;;;;;;7.60;99.90;;;;;;5053930;28;19916;-45
2020/12/03 11:55:40;;;;;;;;;;;7.40;99.60;;;;;;5054152;28;19971;-44
2020/12/03 11:58:06;;;;;;;;;;;7.30;99.70;;;;;;5037080;28;19959;-43
2020/12/03 12:00:32;;;;;;;;;;;6.40;99.90;;;;;;5052695;28;19909;-44
2020/12/03 12:03:02;;;;;;;;;;;6.70;99.90;;;;;;5036878;28;20279;-44
2020/12/03 12:05:38;;;;;;;;;;;7.00;99.90;;;;;;5053611;28;19913;-44
2020/12/03 12:13:26;;;;;;;;;;;7.50;98.60;;;;;;5053745;28;19916;-44
2020/12/03 12:15:52;;;;;;;;;;;7.40;98.50;;;;;;5054130;28;19909;-44
2020/12/03 12:18:17;;;;;;;;;;;7.40;98.20;;;;;;5053561;28;19913;-41
2020/12/03 12:20:43;;;;;;;;;;;6.70;99.80;;;;;;5065034;28;20270;-44
2020/12/03 12:23:09;;;;;;;;;;;6.40;99.20;;;;;;5096093;28;20006;-44
2020/12/03 12:25:35;;;;;;;;;;;6.00;99.60;;;;;;5096443;28;19946;-43
2020/12/03 12:28:00;;;;;;;;;;;5.90;99.90;;;;;;5096020;28;19915;-43
2020/12/03 12:30:26;;;;;;;;;;;6.00;99.90;;;;;;5096058;28;20000;-43
2020/12/03 12:32:52;;;;;;;;;;;5.70;99.90;;;;;;5094467;28;19908;-43
2020/12/03 12:35:17;;;;;;;;;;;5.70;99.90;;;;;;5094957;28;19950;-43
2020/12/03 12:37:43;;;;;;;;;;;5.90;99.90;;;;;;5095667;28;19958;-43
2020/12/03 12:40:09;;;;;;;;;;;6.00;99.90;;;;;;5095731;28;19916;-44
2020/12/03 12:42:35;;;;;;;;;;;6.00;99.90;;;;;;5095011;28;19927;-44
2020/12/03 12:45:01;;;;;;;;;;;6.10;99.90;;;;;;5095419;28;19912;-42
2020/12/03 12:47:26;;;;;;;;;;;5.80;99.90;;;;;;5095302;28;19916;-44
2020/12/03 12:49:52;;;;;;;;;;;5.30;99.90;;;;;;5094170;28;20346;-41
2020/12/03 12:52:18;;;;;;;;;;;4.80;99.90;;;;;;5095194;28;19914;-44
2020/12/03 12:54:44;;;;;;;;;;;4.70;99.90;;;;;;5095346;28;19995;-44
2020/12/03 12:57:10;;;;;;;;;;;4.60;99.90;;;;;;5095621;28;19924;-44
2020/12/03 12:59:35;;;;;;;;;;;4.60;99.90;;;;;;5094896;28;19915;-44
2020/12/03 13:02:01;;;;;;;;;;;4.70;99.90;;;;;;5095261;28;19920;-45
2020/12/03 13:04:27;;;;;;;;;;;4.80;99.90;;;;;;5094952;28;19957;-44
2020/12/03 13:06:56;;;;;;;;;;;4.90;99.90;;;;;;5094718;28;19912;-45
2020/12/03 13:09:24;;;;;;;;;;;5.30;99.90;;;;;;5095444;28;19915;-45
2020/12/03 13:11:50;;;;;;;;;;;5.70;99.90;;;;;;5095123;28;20328;-44
2020/12/03 13:14:16;;;;;;;;;;;5.90;99.90;;;;;;5095018;28;19908;-45
2020/12/03 13:16:42;;;;;;;;;;;5.50;99.90;;;;;;5094724;28;20007;-44
2020/12/03 13:19:08;;;;;;;;;;;5.30;99.90;;;;;;5095000;28;19986;-44
2020/12/03 13:21:34;;;;;;;;;;;5.20;99.90;;;;;;5094984;28;19930;-45
2020/12/03 13:24:00;;;;;;;;;;;5.30;99.90;;;;;;5093460;28;20366;-45
2020/12/03 13:26:26;;;;;;;;;;;5.30;99.90;;;;;;5095049;28;20286;-45
2020/12/03 13:28:52;;;;;;;;;;;5.40;99.90;;;;;;5093498;28;19908;-45
2020/12/03 13:31:17;;;;;;;;;;;5.40;99.90;;;;;;5093182;28;19908;-45
2020/12/03 13:33:43;;;;;;;;;;;5.50;99.90;;;;;;5094906;28;19915;-45
2020/12/03 13:36:09;;;;;;;;;;;5.70;99.90;;;;;;5094629;28;19920;-44
2020/12/03 13:38:35;;;;;;;;;;;5.70;99.90;;;;;;5094186;28;19918;-45
2020/12/03 13:41:01;;;;;;;;;;;5.40;99.90;;;;;;5093155;28;20430;-44
2020/12/03 13:43:26;;;;;;;;;;;5.10;99.90;;;;;;5092766;28;20019;-44
2020/12/03 13:45:53;;;;;;;;;;;5.00;99.90;;;;;;5094932;28;19908;-44
2020/12/03 13:48:19;;;;;;;;;;;4.60;99.90;;;;;;5094696;28;19931;-45
2020/12/03 13:50:44;;;;;;;;;;;4.50;99.90;;;;;;5093421;28;20321;-44
2020/12/03 13:53:10;;;;;;;;;;;4.60;99.90;;;;;;5092910;28;19908;-44
2020/12/03 13:55:36;;;;;;;;;;;4.90;99.90;;;;;;5094416;28;20018;-44
2020/12/03 13:58:01;;;;;;;;;;;4.80;99.90;;;;;;5094061;28;19908;-44
2020/12/03 14:00:27;;;;;;;;;;;5.00;99.90;;;;;;5092790;28;19908;-45
2020/12/03 14:02:53;;;;;;;;;;;5.20;99.90;;;;;;5094350;28;19908;-44
2020/12/03 14:05:19;;;;;;;;;;;5.60;99.90;;;;;;5093832;28;19920;-44
2020/12/03 14:07:44;;;;;;;;;;;5.60;99.90;;;;;;5094378;28;19908;-44
2020/12/03 14:10:10;;;;;;;;;;;5.40;99.90;;;;;;5094306;28;19908;-44
2020/12/03 14:12:36;;;;;;;;;;;4.70;99.90;;;;;;5094069;28;19908;-44
2020/12/03 14:15:02;;;;;;;;;;;4.50;99.90;;;;;;5093602;28;20003;-44
2020/12/03 14:17:28;;;;;;;;;;;4.50;99.90;;;;;;5093940;28;19915;-44
2020/12/03 14:19:54;;;;;;;;;;;4.40;99.90;;;;;;5092231;28;19908;-44
2020/12/03 14:22:20;;;;;;;;;;;4.40;99.90;;;;;;5093921;28;20007;-44
2020/12/03 14:24:46;;;;;;;;;;;4.30;99.90;;;;;;5097443;28;20278;-44
2020/12/03 14:27:11;;;;;;;;;;;4.30;99.90;;;;;;5096676;28;19919;-44
2020/12/03 14:29:37;;;;;;;;;;;4.20;99.90;;;;;;5098095;28;19994;-44
2020/12/03 14:32:03;;;;;;;;;;;4.00;99.90;;;;;;5096835;28;20019;-44
2020/12/03 14:34:28;;;;;;;;;;;4.00;99.90;;;;;;5097848;28;19916;-44
2020/12/03 14:36:54;;;;;;;;;;;3.90;99.90;;;;;;5097655;28;19909;-44
2020/12/03 14:39:20;;;;;;;;;;;4.00;99.90;;;;;;5096239;28;19946;-43
2020/12/03 14:41:47;;;;;;;;;;;4.00;99.90;;;;;;5098256;28;19969;-44
2020/12/03 14:44:13;;;;;;;;;;;4.00;99.90;;;;;;5097957;28;19917;-42
2020/12/03 14:46:39;;;;;;;;;;;3.70;99.90;;;;;;5098238;28;20291;-40
2020/12/03 14:49:05;;;;;;;;;;;3.50;99.90;;;;;;5096328;28;19915;-43
2020/12/03 14:51:31;;;;;;;;;;;3.20;99.90;;;;;;5096206;28;19908;-44